Dades meteomassalio
Diari Summary for Diciembre 9, 2017 Units:  English    Metric   Both
« Previous Day
Next Day »
Diari Semanal Mensual Anual Personalitzat
  Maxima: Minima: Mijana:
Temperatura: 55 °F 42.1 °F 46.6 °F
Rosada: 38.5 °F 30.4 °F 36.1 °F
Humitat: 78 % 51 % 67 %
Velocitat del vent: 29.9 mph 0 mph 12 mph
Racha vent: 29.9 mph - -
Vent:- - NW
Pressio: 30.4 in 30.2 in -
Pluja: 0 in    
Historical Graphs
 
 
Tabular Data for Diciembre 9, 2017
Time Temperature Dew Point Pressure Wind Wind Speed Wind Gust Humidity Rainfall Rate (Hourly) solar Conditions
00:02 46 °F 38.5 °F 30.3 in NNW 11.5 mph 11.5 mph 75 % 0 in 0.0 W/m2 CLR
00:07 46 °F 38.5 °F 30.3 in NW 11.5 mph 11.5 mph 75 % 0 in 0.0 W/m2 CLR
00:17 46 °F 38.5 °F 30.3 in NW 12.7 mph 12.7 mph 75 % 0 in 0.0 W/m2 CLR
00:22 46 °F 38.5 °F 30.3 in NW 13 mph 13 mph 75 % 0 in 0.0 W/m2 CLR
00:27 46 °F 38.5 °F 30.3 in WNW 15 mph 15 mph 75 % 0 in 0.0 W/m2 CLR
00:32 46 °F 38.1 °F 30.3 in NW 13.8 mph 13.8 mph 74 % 0 in 0.0 W/m2 CLR
00:42 46 °F 38.1 °F 30.3 in NW 11.5 mph 11.5 mph 74 % 0 in 0.0 W/m2 CLR
00:47 46 °F 37.8 °F 30.3 in NW 12 mph 12 mph 73 % 0 in 0.0 W/m2 CLR
00:52 46 °F 37.8 °F 30.3 in NNW 6.9 mph 6.9 mph 73 % 0 in 0.0 W/m2 CLR
00:57 46 °F 37.8 °F 30.3 in WNW 11.5 mph 11.5 mph 73 % 0 in 0.0 W/m2 CLR
01:02 46 °F 37.8 °F 30.3 in NNW 18.4 mph 18.4 mph 73 % 0 in 0.0 W/m2 CLR
01:07 46 °F 37.8 °F 30.3 in NW 12 mph 12 mph 73 % 0 in 0.0 W/m2 CLR
01:12 46 °F 37.6 °F 30.3 in NNW 15 mph 15 mph 72 % 0 in 0.0 W/m2 CLR
01:17 46 °F 37.8 °F 30.3 in NW 16.1 mph 16.1 mph 73 % 0 in 0.0 W/m2 CLR
01:19 46 °F 37.8 °F 30.3 in NW 16.1 mph 16.1 mph 73 % 0 in 0.0 W/m2 CLR
01:24 45 °F 36.9 °F 30.3 in WNW 16.1 mph 16.1 mph 73 % 0 in 0.0 W/m2 CLR
01:29 46 °F 37.8 °F 30.3 in NW 15 mph 15 mph 73 % 0 in 0.0 W/m2 CLR
01:39 46 °F 38.1 °F 30.3 in NNW 25.3 mph 25.3 mph 74 % 0 in 0.0 W/m2 CLR
01:49 46 °F 38.1 °F 30.3 in NW 18.4 mph 18.4 mph 74 % 0 in 0.0 W/m2 CLR
01:54 46 °F 38.1 °F 30.3 in NW 16.1 mph 16.1 mph 74 % 0 in 0.0 W/m2 CLR
01:59 46 °F 38.1 °F 30.3 in NW 15 mph 15 mph 74 % 0 in 0.0 W/m2 CLR
02:04 46 °F 38.1 °F 30.3 in NNW 13.8 mph 13.8 mph 74 % 0 in 0.0 W/m2 CLR
02:09 45 °F 37.2 °F 30.3 in NW 15 mph 15 mph 74 % 0 in 0.0 W/m2 CLR
02:19 45 °F 37.2 °F 30.3 in NW 17.3 mph 17.3 mph 74 % 0 in 0.0 W/m2 CLR
02:29 45 °F 37.2 °F 30.3 in NNW 17 mph 17 mph 74 % 0 in 0.0 W/m2 CLR
02:34 45 °F 37.2 °F 30.3 in NNW 15 mph 15 mph 74 % 0 in 0.0 W/m2 CLR
02:39 45 °F 37.2 °F 30.3 in WNW 19.6 mph 19.6 mph 74 % 0 in 0.0 W/m2 CLR
02:44 45 °F 37.2 °F 30.3 in NNW 15 mph 15 mph 74 % 0 in 0.0 W/m2 CLR
02:49 45 °F 37.2 °F 30.3 in NW 19.6 mph 19.6 mph 74 % 0 in 0.0 W/m2 CLR
02:54 45 °F 37.6 °F 30.3 in NW 24.2 mph 24.2 mph 75 % 0 in 0.0 W/m2 CLR
03:09 45 °F 37.9 °F 30.3 in North 17.3 mph 17.3 mph 76 % 0 in 0.0 W/m2 CLR
03:14 45 °F 37.9 °F 30.3 in NW 19.6 mph 19.6 mph 76 % 0 in 0.0 W/m2 CLR
03:19 45 °F 37.9 °F 30.3 in NNW 19.6 mph 19.6 mph 76 % 0 in 0.0 W/m2 CLR
03:24 45 °F 37.9 °F 30.3 in NW 21.9 mph 21.9 mph 76 % 0 in 0.0 W/m2 CLR
03:29 45 °F 37.9 °F 30.3 in NW 18.4 mph 18.4 mph 76 % 0 in 0.0 W/m2 CLR
03:34 45 °F 37.6 °F 30.3 in NW 19.6 mph 19.6 mph 75 % 0 in 0.0 W/m2 CLR
03:39 45 °F 37.9 °F 30.3 in NW 11 mph 11 mph 76 % 0 in 0.0 W/m2 CLR
03:44 45 °F 37.9 °F 30.3 in NW 17 mph 17 mph 76 % 0 in 0.0 W/m2 CLR
03:54 44.1 °F 37.2 °F 30.3 in NW 17.3 mph 17.3 mph 77 % 0 in 0.0 W/m2 CLR
04:04 44.1 °F 37.2 °F 30.3 in NNW 14 mph 14 mph 77 % 0 in 0.0 W/m2 CLR
04:16 45 °F 37.6 °F 30.3 in NNW 19.6 mph 19.6 mph 75 % 0 in 0.0 W/m2 CLR
04:18 45 °F 37.6 °F 30.3 in North 19.6 mph 19.6 mph 75 % 0 in 0.0 W/m2 CLR
04:23 45 °F 37.6 °F 30.3 in NNW 19.6 mph 19.6 mph 75 % 0 in 0.0 W/m2 CLR
04:24 45 °F 37.2 °F 30.3 in NNW 29.9 mph 29.9 mph 74 % 0 in 0.0 W/m2 CLR
04:29 45 °F 37.2 °F 30.3 in North 20.7 mph 20.7 mph 74 % 0 in 0.0 W/m2 CLR
04:30 45 °F 37.2 °F 30.3 in North 21.9 mph 21.9 mph 74 % 0 in 0.0 W/m2 CLR
04:45 45 °F 37.6 °F 30.3 in NNW 17.3 mph 17.3 mph 75 % 0 in 0.0 W/m2 CLR
04:50 44.1 °F 36.7 °F 30.3 in NW 19.6 mph 19.6 mph 75 % 0 in 0.0 W/m2 CLR
04:55 44.1 °F 36.7 °F 30.3 in North 18.4 mph 18.4 mph 75 % 0 in 0.0 W/m2 CLR
05:00 44.1 °F 36.7 °F 30.3 in NNW 20 mph 20 mph 75 % 0 in 0.0 W/m2 CLR
05:10 44.1 °F 36.1 °F 30.3 in NW 18.4 mph 18.4 mph 74 % 0 in 0.0 W/m2 CLR
05:15 44.1 °F 36.1 °F 30.3 in NNW 20.7 mph 20.7 mph 74 % 0 in 0.0 W/m2 CLR
05:20 44.1 °F 36.1 °F 30.3 in NNW 19.6 mph 19.6 mph 74 % 0 in 0.0 W/m2 CLR
05:25 44.1 °F 36.7 °F 30.3 in NW 19.6 mph 19.6 mph 75 % 0 in 0.0 W/m2 CLR
05:40 44.1 °F 37.2 °F 30.3 in NW 19.6 mph 19.6 mph 77 % 0 in 0.0 W/m2 CLR
05:45 44.1 °F 36.9 °F 30.3 in WNW 18.4 mph 18.4 mph 76 % 0 in 0.0 W/m2 CLR
05:55 44.1 °F 37.2 °F 30.3 in NW 19.6 mph 19.6 mph 77 % 0 in 0.0 W/m2 CLR
06:00 44.1 °F 37.2 °F 30.3 in NNW 21.9 mph 21.9 mph 77 % 0 in 0.0 W/m2 CLR
06:05 44.1 °F 37.2 °F 30.3 in NW 14 mph 14 mph 77 % 0 in 0.0 W/m2 CLR
06:10 43 °F 36 °F 30.3 in NNW 10 mph 10 mph 76 % 0 in 0.0 W/m2 CLR
06:15 43 °F 36 °F 30.3 in NNW 11 mph 11 mph 76 % 0 in 0.0 W/m2 CLR
06:25 43 °F 36 °F 30.3 in NW 17 mph 17 mph 76 % 0 in 0.0 W/m2 CLR
06:30 43 °F 36 °F 30.3 in West 15 mph 15 mph 76 % 0 in 0.0 W/m2 CLR
06:35 43 °F 36 °F 30.3 in WNW 16.1 mph 16.1 mph 76 % 0 in 0.0 W/m2 CLR
06:40 43 °F 36.3 °F 30.3 in NW 10.4 mph 10.4 mph 77 % 0 in 0.0 W/m2 CLR
06:45 43 °F 36.3 °F 30.3 in NW 16 mph 16 mph 77 % 0 in 0.0 W/m2 CLR
06:50 43 °F 36.3 °F 30.3 in North 12.7 mph 12.7 mph 77 % 0 in 0.0 W/m2 CLR
06:55 43 °F 36.7 °F 30.3 in NNW 18.4 mph 18.4 mph 78 % 0 in 0.0 W/m2 CLR
07:00 43 °F 36.7 °F 30.3 in NNW 20.7 mph 20.7 mph 78 % 0 in 0.0 W/m2 CLR
07:05 43 °F 36.7 °F 30.3 in NW 16.1 mph 16.1 mph 78 % 0 in 0.0 W/m2 CLR
07:10 43 °F 36.7 °F 30.3 in WNW 18.4 mph 18.4 mph 78 % 0 in 0.0 W/m2 CLR
07:15 43 °F 36.3 °F 30.3 in NW 15 mph 15 mph 77 % 0 in 0.0 W/m2 CLR
07:20 43 °F 36.3 °F 30.3 in NW 21.9 mph 21.9 mph 77 % 0 in 0.0 W/m2 CLR
07:25 43 °F 36.3 °F 30.3 in NNW 21.9 mph 21.9 mph 77 % 0 in 0.0 W/m2 CLR
07:31 43 °F 36.3 °F 30.3 in NW 15 mph 15 mph 77 % 0 in 0.0 W/m2 CLR
07:36 43 °F 36.3 °F 30.3 in NW 15 mph 15 mph 77 % 0 in 0.0 W/m2 CLR
07:41 43 °F 36.3 °F 30.3 in WNW 17.3 mph 17.3 mph 77 % 0 in 0.0 W/m2 CLR
07:46 43 °F 36 °F 30.3 in WNW 15 mph 15 mph 76 % 0 in 0.0 W/m2 CLR
07:51 43 °F 36 °F 30.3 in West 10.4 mph 10.4 mph 76 % 0 in 0.0 W/m2 CLR
07:56 43 °F 36 °F 30.3 in West 17.3 mph 17.3 mph 76 % 0 in 0.0 W/m2 CLR
08:01 42.1 °F 35.1 °F 30.3 in West 17 mph 17 mph 76 % 0 in 0.0 W/m2 CLR
08:06 42.1 °F 35.1 °F 30.3 in WNW 8.1 mph 8.1 mph 76 % 0 in 0.0 W/m2 OVC
08:11 42.1 °F 35.2 °F 30.3 in NW 10.4 mph 10.4 mph 77 % 0 in 0.0 W/m2 OVC
08:21 42.1 °F 35.2 °F 30.3 in NW 18.4 mph 18.4 mph 77 % 0 in 7.0 W/m2 BKN
08:26 43 °F 36.3 °F 30.3 in NNW 15 mph 15 mph 77 % 0 in 11.0 W/m2 BKN
08:36 43 °F 36 °F 30.3 in NW 14 mph 14 mph 76 % 0 in 14.0 W/m2 BKN
08:41 43 °F 35.6 °F 30.3 in NW 12 mph 12 mph 75 % 0 in 18.0 W/m2 BKN
08:46 43 °F 35.6 °F 30.3 in WNW 13 mph 13 mph 75 % 0 in 25.0 W/m2 BKN
08:51 43 °F 35.6 °F 30.3 in WNW 15 mph 15 mph 75 % 0 in 37.0 W/m2 BKN
08:56 43 °F 35.6 °F 30.3 in NNW 19.6 mph 19.6 mph 75 % 0 in 44.0 W/m2 BKN
09:01 43 °F 35.6 °F 30.3 in NW 16.1 mph 16.1 mph 75 % 0 in 49.0 W/m2 SCT
09:06 43 °F 35.2 °F 30.3 in WNW 13.8 mph 13.8 mph 74 % 0 in 54.0 W/m2 SCT
09:21 44.1 °F 36 °F 30.3 in NW 9.2 mph 9.2 mph 73 % 0 in 98.0 W/m2 CLR
09:31 44.1 °F 35.6 °F 30.3 in NNW 16.1 mph 16.1 mph 72 % 0 in 134.0 W/m2 CLR
09:46 45 °F 35.8 °F 30.3 in NW 19.6 mph 19.6 mph 70 % 0 in 130.0 W/m2 CLR
09:51 45 °F 35.8 °F 30.3 in NW 16.1 mph 16.1 mph 70 % 0 in 139.0 W/m2 CLR
09:56 45 °F 35.8 °F 30.3 in NW 23 mph 23 mph 70 % 0 in 118.0 W/m2 CLR
10:01 46 °F 36.9 °F 30.3 in NW 18.4 mph 18.4 mph 70 % 0 in 153.0 W/m2 CLR
10:09 46 °F 37 °F 30.3 in NW 16.1 mph 16.1 mph 71 % 0 in 171.0 W/m2 CLR
10:14 46 °F 37 °F 30.3 in NW 19.6 mph 19.6 mph 71 % 0 in 211.0 W/m2 CLR
10:19 46 °F 37 °F 30.3 in NW 13.8 mph 13.8 mph 71 % 0 in 234.0 W/m2 CLR
10:24 46 °F 37 °F 30.3 in NNW 19 mph 19 mph 71 % 0 in 258.0 W/m2 CLR
10:29 46 °F 36.9 °F 30.3 in NW 19.6 mph 19.6 mph 70 % 0 in 237.0 W/m2 CLR
10:34 46.9 °F 37.8 °F 30.3 in NW 16.1 mph 16.1 mph 70 % 0 in 257.0 W/m2 CLR
10:39 46.9 °F 37.8 °F 30.3 in NW 17.3 mph 17.3 mph 70 % 0 in 234.0 W/m2 CLR
10:49 46.9 °F 37.4 °F 30.3 in NW 20 mph 20 mph 69 % 0 in 297.0 W/m2 CLR
10:59 46.9 °F 35.8 °F 30.4 in NNW 24.2 mph 24.2 mph 65 % 0 in 334.0 W/m2 CLR
11:09 48 °F 36.9 °F 30.4 in NW 17.3 mph 17.3 mph 65 % 0 in 341.0 W/m2 CLR
11:14 48.9 °F 37.2 °F 30.4 in NNW 21.9 mph 21.9 mph 64 % 0 in 353.0 W/m2 CLR
11:19 48.9 °F 36.9 °F 30.4 in NW 20.7 mph 20.7 mph 63 % 0 in 366.0 W/m2 CLR
11:24 48.9 °F 36.5 °F 30.4 in NNW 26.5 mph 26.5 mph 62 % 0 in 373.0 W/m2 CLR
11:34 48.9 °F 36.5 °F 30.4 in NNW 24.2 mph 24.2 mph 62 % 0 in 390.0 W/m2 CLR
11:44 50 °F 36.7 °F 30.3 in NNW 21.9 mph 21.9 mph 60 % 0 in 397.0 W/m2 CLR
11:49 50 °F 36.7 °F 30.3 in NW 20.7 mph 20.7 mph 60 % 0 in 401.0 W/m2 CLR
12:04 50 °F 35.8 °F 30.4 in NW 20 mph 20 mph 58 % 0 in 418.0 W/m2 CLR
12:09 51.1 °F 36.3 °F 30.4 in NNW 24.2 mph 24.2 mph 57 % 0 in 431.0 W/m2 CLR
12:14 51.1 °F 36.3 °F 30.4 in NNW 26 mph 26 mph 57 % 0 in 427.0 W/m2 CLR
12:19 51.1 °F 36.3 °F 30.4 in NNW 21.9 mph 21.9 mph 57 % 0 in 431.0 W/m2 CLR
12:24 51.1 °F 36.3 °F 30.4 in North 20.7 mph 20.7 mph 57 % 0 in 434.0 W/m2 CLR
12:29 51.1 °F 36.3 °F 30.3 in NNW 17 mph 17 mph 57 % 0 in 431.0 W/m2 CLR
12:34 51.1 °F 36.3 °F 30.4 in NNW 26.5 mph 26.5 mph 57 % 0 in 436.0 W/m2 CLR
12:39 51.1 °F 36.3 °F 30.3 in NNW 21.9 mph 21.9 mph 57 % 0 in 450.0 W/m2 CLR
12:44 51.1 °F 36.3 °F 30.3 in North 19.6 mph 19.6 mph 57 % 0 in 403.0 W/m2 CLR
12:49 51.1 °F 36.7 °F 30.3 in NNW 18.4 mph 18.4 mph 58 % 0 in 403.0 W/m2 CLR
12:54 51.1 °F 36.3 °F 30.3 in NNW 17.3 mph 17.3 mph 57 % 0 in 352.0 W/m2 CLR
12:59 51.1 °F 35.8 °F 30.3 in NNW 15 mph 15 mph 56 % 0 in 439.0 W/m2 CLR
13:04 51.1 °F 35.8 °F 30.3 in NNW 17.3 mph 17.3 mph 56 % 0 in 438.0 W/m2 CLR
13:09 52 °F 36.3 °F 30.3 in NW 23 mph 23 mph 55 % 0 in 446.0 W/m2 CLR
13:19 52 °F 36 °F 30.3 in North 19.6 mph 19.6 mph 54 % 0 in 434.0 W/m2 CLR
13:24 52 °F 36.3 °F 30.3 in WNW 18.4 mph 18.4 mph 55 % 0 in 432.0 W/m2 CLR
13:29 53.1 °F 36.9 °F 30.3 in North 24 mph 24 mph 54 % 0 in 432.0 W/m2 CLR
13:34 53.1 °F 37.2 °F 30.3 in NNW 20.7 mph 20.7 mph 55 % 0 in 434.0 W/m2 CLR
13:39 53.1 °F 36.9 °F 30.3 in NNW 18 mph 18 mph 54 % 0 in 436.0 W/m2 CLR
13:44 53.1 °F 36.9 °F 30.3 in North 18.4 mph 18.4 mph 54 % 0 in 443.0 W/m2 CLR
13:54 53.1 °F 36.3 °F 30.3 in NNW 19.6 mph 19.6 mph 53 % 0 in 418.0 W/m2 CLR
13:59 54 °F 37.2 °F 30.3 in NW 23 mph 23 mph 53 % 0 in 427.0 W/m2 CLR
14:04 54 °F 36.9 °F 30.3 in North 21.9 mph 21.9 mph 52 % 0 in 418.0 W/m2 CLR
14:09 54 °F 36.9 °F 30.3 in NNW 20.7 mph 20.7 mph 52 % 0 in 406.0 W/m2 CLR
14:14 54 °F 37.2 °F 30.3 in NW 19.6 mph 19.6 mph 53 % 0 in 390.0 W/m2 CLR
14:19 53.1 °F 35.8 °F 30.3 in North 20 mph 20 mph 52 % 0 in 387.0 W/m2 CLR
14:34 54 °F 36.9 °F 30.3 in NNW 18.4 mph 18.4 mph 52 % 0 in 367.0 W/m2 CLR
14:39 54 °F 36.9 °F 30.3 in NNW 12.7 mph 12.8 mph 52 % 0 in 359.0 W/m2 CLR
14:41 54 °F 36.3 °F 30.3 in NNW 17.3 mph 17.3 mph 51 % 0 in 359.0 W/m2 CLR
14:51 55 °F 37.8 °F 30.3 in NNW 14 mph 14 mph 52 % 0 in 348.0 W/m2 CLR
15:01 55 °F 37.2 °F 30.3 in NNW 9.2 mph 9.2 mph 51 % 0 in 255.0 W/m2 CLR
15:06 54 °F 36.3 °F 30.3 in NNW 17.3 mph 17.3 mph 51 % 0 in 283.0 W/m2 CLR
15:11 54 °F 36.9 °F 30.3 in NNW 12.7 mph 12.7 mph 52 % 0 in 297.0 W/m2 CLR
15:16 54 °F 36.9 °F 30.3 in NNW 12.7 mph 12.7 mph 52 % 0 in 343.0 W/m2 CLR
15:21 54 °F 36.9 °F 30.3 in NNW 18.4 mph 18.4 mph 52 % 0 in 345.0 W/m2 CLR
15:26 55 °F 37.8 °F 30.3 in NNW 15 mph 15 mph 52 % 0 in 313.0 W/m2 CLR
15:31 55 °F 37.8 °F 30.3 in NNW 17.3 mph 17.3 mph 52 % 0 in 262.0 W/m2 CLR
15:37 54 °F 36.9 °F 30.3 in North 16.1 mph 16.1 mph 52 % 0 in 239.0 W/m2 CLR
15:42 54 °F 36.9 °F 30.3 in WNW 10.4 mph 10.4 mph 52 % 0 in 227.0 W/m2 CLR
15:57 53.1 °F 35.8 °F 30.3 in North 12 mph 12 mph 52 % 0 in 70.0 W/m2 CLR
16:02 53.1 °F 36.3 °F 30.3 in NW 8.1 mph 8.1 mph 53 % 0 in 65.0 W/m2 FEW
16:12 52 °F 36 °F 30.3 in North 10.4 mph 10.4 mph 54 % 0 in 67.0 W/m2 SCT
16:17 52 °F 36 °F 30.3 in North 9.2 mph 9.2 mph 54 % 0 in 67.0 W/m2 FEW
16:22 52 °F 36 °F 30.3 in NNW 9.2 mph 9.2 mph 54 % 0 in 54.0 W/m2 FEW
16:27 52 °F 36 °F 30.3 in North 11 mph 11 mph 54 % 0 in 51.0 W/m2 SCT
16:32 52 °F 36.3 °F 30.3 in North 10.4 mph 10.4 mph 55 % 0 in 49.0 W/m2 SCT
16:42 52 °F 36.3 °F 30.3 in NNE 8.1 mph 8.1 mph 55 % 0 in 30.0 W/m2 BKN
16:47 51.1 °F 35.8 °F 30.3 in NNE 8.1 mph 8.1 mph 56 % 0 in 19.0 W/m2 BKN
16:52 51.1 °F 35.8 °F 30.3 in NNE 5.8 mph 5.8 mph 56 % 0 in 12.0 W/m2 BKN
16:57 51.1 °F 35.8 °F 30.3 in NNE 8.1 mph 8.1 mph 56 % 0 in 11.0 W/m2 BKN
17:02 51.1 °F 36.3 °F 30.3 in NNE 10.4 mph 10.4 mph 57 % 0 in 7.0 W/m2 BKN
17:07 51.1 °F 36.3 °F 30.3 in NNW 9.2 mph 9.2 mph 57 % 0 in 9.0 W/m2 BKN
17:12 50 °F 35.4 °F 30.3 in North 8.1 mph 8.1 mph 57 % 0 in 9.0 W/m2 BKN
17:22 50 °F 35.8 °F 30.3 in North 3.5 mph 3.6 mph 58 % 0 in 5.0 W/m2 OVC
17:27 50 °F 35.8 °F 30.3 in Calm     58 % 0 in 0.0 W/m2 OVC
17:32 50 °F 35.8 °F 30.3 in Calm     58 % 0 in 0.0 W/m2 OVC
17:37 50 °F 35.8 °F 30.3 in Calm     58 % 0 in 0.0 W/m2 OVC
17:42 48.9 °F 34.9 °F 30.3 in Calm     58 % 0 in 0.0 W/m2 CLR
17:47 48.9 °F 34.9 °F 30.3 in Calm     58 % 0 in 0.0 W/m2 CLR
17:52 48.9 °F 35.2 °F 30.3 in Calm     59 % 0 in 0.0 W/m2 CLR
17:57 48.9 °F 35.2 °F 30.3 in Calm     59 % 0 in 0.0 W/m2 CLR
18:02 48.9 °F 35.2 °F 30.3 in Calm     59 % 0 in 0.0 W/m2 CLR
18:07 48.9 °F 35.2 °F 30.3 in Calm     59 % 0 in 0.0 W/m2 CLR
18:12 48.9 °F 35.8 °F 30.3 in Calm     60 % 0 in 0.0 W/m2 CLR
18:17 48.9 °F 35.2 °F 30.3 in Calm     59 % 0 in 0.0 W/m2 CLR
18:22 48.9 °F 35.2 °F 30.3 in Calm     59 % 0 in 0.0 W/m2 CLR
18:23 48.9 °F 35.2 °F 30.3 in Calm     59 % 0 in 0.0 W/m2 CLR
18:28 48.9 °F 35.8 °F 30.3 in Calm     60 % 0 in 0.0 W/m2 CLR
18:33 48 °F 34.9 °F 30.3 in Calm     60 % 0 in 0.0 W/m2 CLR
18:43 48 °F 34.9 °F 30.3 in Calm     60 % 0 in 0.0 W/m2 CLR
18:48 48 °F 34.9 °F 30.3 in Calm     60 % 0 in 0.0 W/m2 CLR
18:53 46.9 °F 33.8 °F 30.3 in Calm     60 % 0 in 0.0 W/m2 CLR
18:58 46.9 °F 33.8 °F 30.3 in Calm     60 % 0 in 0.0 W/m2 CLR
19:03 46.9 °F 33.8 °F 30.3 in Calm     60 % 0 in 0.0 W/m2 CLR
19:08 46.9 °F 33.8 °F 30.3 in Calm     60 % 0 in 0.0 W/m2 CLR
19:13 46 °F 33.3 °F 30.3 in Calm     61 % 0 in 0.0 W/m2 CLR
19:23 45 °F 32.7 °F 30.3 in Calm     62 % 0 in 0.0 W/m2 CLR
19:28 45 °F 32.7 °F 30.2 in Calm     62 % 0 in 0.0 W/m2 CLR
19:33 44.1 °F 31.8 °F 30.2 in Calm     62 % 0 in 0.0 W/m2 CLR
19:38 43 °F 30.9 °F 30.2 in Calm     62 % 0 in 0.0 W/m2 CLR
19:48 42.1 °F 30.4 °F 30.2 in Calm     63 % 0 in 0.0 W/m2 CLR
19:53 42.1 °F 31.1 °F 30.2 in Calm     65 % 0 in 0.0 W/m2 CLR
19:58 43 °F 32 °F 30.2 in Calm     65 % 0 in 0.0 W/m2 CLR
20:03 43 °F 32.4 °F 30.2 in Calm     66 % 0 in 0.0 W/m2 CLR
20:08 43 °F 32.4 °F 30.2 in Calm     66 % 0 in 0.0 W/m2 CLR
20:18 44.1 °F 33.4 °F 30.2 in Calm     66 % 0 in 0.0 W/m2 CLR
20:28 44.1 °F 33.4 °F 30.2 in Calm     66 % 0 in 0.0 W/m2 CLR
20:38 44.1 °F 33.6 °F 30.2 in Calm     67 % 0 in 0.0 W/m2 CLR
20:43 44.1 °F 33.6 °F 30.2 in Calm     67 % 0 in 0.0 W/m2 CLR
20:48 44.1 °F 34.2 °F 30.2 in Calm     68 % 0 in 0.0 W/m2 CLR
20:58 43 °F 33.4 °F 30.2 in Calm     69 % 0 in 0.0 W/m2 CLR
21:03 43 °F 34 °F 30.2 in Calm     70 % 0 in 0.0 W/m2 CLR
21:08 43 °F 34.2 °F 30.2 in Calm     71 % 0 in 0.0 W/m2 CLR
21:18 43 °F 34.2 °F 30.2 in Calm     71 % 0 in 0.0 W/m2 CLR
21:23 43 °F 34.2 °F 30.2 in Calm     71 % 0 in 0.0 W/m2 CLR
21:28 42.1 °F 33.6 °F 30.2 in Calm     72 % 0 in 0.0 W/m2 CLR
21:33 42.1 °F 33.6 °F 30.2 in Calm     72 % 0 in 0.0 W/m2 CLR
21:38 42.1 °F 33.6 °F 30.2 in Calm     72 % 0 in 0.0 W/m2 CLR
21:43 42.1 °F 33.6 °F 30.2 in Calm     72 % 0 in 0.0 W/m2 CLR
21:48 42.1 °F 33.6 °F 30.2 in Calm     72 % 0 in 0.0 W/m2 CLR
21:53 43 °F 34.9 °F 30.2 in Calm     73 % 0 in 0.0 W/m2 CLR
22:03 43 °F 35.2 °F 30.2 in Calm     74 % 0 in 0.0 W/m2 CLR
22:08 43 °F 35.2 °F 30.2 in Calm     74 % 0 in 0.0 W/m2 CLR
22:13 43 °F 35.2 °F 30.2 in Calm     74 % 0 in 0.0 W/m2 CLR
22:28 43 °F 35.6 °F 30.2 in Calm     75 % 0 in 0.0 W/m2 CLR
22:33 43 °F 35.6 °F 30.2 in Calm     75 % 0 in 0.0 W/m2 CLR
22:38 43 °F 35.6 °F 30.2 in Calm     75 % 0 in 0.0 W/m2 CLR
22:40 43 °F 35.6 °F 30.2 in Calm     75 % 0 in 0.0 W/m2 CLR
22:50 43 °F 35.6 °F 30.2 in Calm     75 % 0 in 0.0 W/m2 CLR
22:55 43 °F 36 °F 30.2 in Calm     76 % 0 in 0.0 W/m2 CLR
23:00 43 °F 36 °F 30.2 in Calm     76 % 0 in 0.0 W/m2 CLR
23:10 43 °F 36.3 °F 30.2 in Calm     77 % 0 in 0.0 W/m2 CLR
23:25 44.1 °F 37.2 °F 30.2 in Calm     77 % 0 in 0.0 W/m2 CLR
23:30 44.1 °F 37.2 °F 30.2 in Calm     77 % 0 in 0.0 W/m2 CLR
23:35 44.1 °F 37.2 °F 30.2 in Calm     77 % 0 in 0.0 W/m2 CLR
23:41 44.1 °F 37.2 °F 30.2 in Calm     77 % 0 in 0.0 W/m2 CLR
23:46 44.1 °F 37.2 °F 30.2 in Calm     77 % 0 in 0.0 W/m2 CLR
23:51 44.1 °F 36.9 °F 30.2 in Calm     76 % 0 in 0.0 W/m2 CLR
23:56 44.1 °F 36.9 °F 30.2 in Calm     76 % 0 in 0.0 W/m2 CLR
Lo Temps de Massalio
Compliments of Weather Underground - 1 mb